createdAt,value
2022-12-09T00:02:12.313Z,34.73
2022-12-09T00:04:39.346Z,31.33
2022-12-09T00:07:06.704Z,31.80
2022-12-09T00:09:33.413Z,35.87
2022-12-09T00:12:00.248Z,33.07
2022-12-09T00:14:27.044Z,35.57
2022-12-09T00:16:53.712Z,34.33
2022-12-09T00:19:20.290Z,35.43
2022-12-09T00:21:46.937Z,33.30
2022-12-09T00:24:14.343Z,36.20
2022-12-09T00:26:41.376Z,34.77
2022-12-09T00:29:08.564Z,34.43
2022-12-09T00:31:35.931Z,32.60
2022-12-09T00:34:04.483Z,35.77
2022-12-09T00:36:31.486Z,34.60
2022-12-09T00:38:58.735Z,34.37
2022-12-09T00:41:25.853Z,30.70
2022-12-09T00:43:52.867Z,33.90
2022-12-09T00:46:19.728Z,34.53
2022-12-09T00:48:47.108Z,33.17
2022-12-09T00:51:15.388Z,37.33
2022-12-09T00:53:42.131Z,31.07
2022-12-09T00:56:08.993Z,35.83
2022-12-09T00:58:35.890Z,31.90
2022-12-09T01:01:02.564Z,39.50
2022-12-09T01:03:29.807Z,36.87
2022-12-09T01:05:56.797Z,33.53
2022-12-09T01:08:23.454Z,35.50
2022-12-09T01:10:50.383Z,32.80
2022-12-09T01:13:17.107Z,33.63
2022-12-09T01:15:44.173Z,31.80
2022-12-09T01:18:12.057Z,37.30
2022-12-09T01:20:39.345Z,31.10
2022-12-09T01:23:06.081Z,31.83
2022-12-09T01:25:32.899Z,32.73
2022-12-09T01:27:59.757Z,37.50
2022-12-09T01:30:26.543Z,31.33
2022-12-09T01:32:53.346Z,37.70
2022-12-09T01:35:20.182Z,31.37
2022-12-09T01:37:46.832Z,36.57
2022-12-09T01:40:16.955Z,34.73
2022-12-09T01:42:44.244Z,37.53
2022-12-09T01:45:20.259Z,31.67
2022-12-09T01:47:51.450Z,38.40
2022-12-09T01:50:18.366Z,36.03
2022-12-09T01:52:46.134Z,36.80
2022-12-09T01:55:13.501Z,34.60
2022-12-09T01:57:40.899Z,31.00
2022-12-09T02:00:08.149Z,31.53
2022-12-09T02:02:45.473Z,32.17
2022-12-09T02:05:13.101Z,34.20
2022-12-09T02:07:43.765Z,30.00
2022-12-09T02:10:12.960Z,32.23
2022-12-09T02:12:54.614Z,34.17
2022-12-09T02:15:23.660Z,36.20
2022-12-09T02:18:01.817Z,31.10
2022-12-09T02:20:37.978Z,30.43
2022-12-09T02:23:18.168Z,32.50
2022-12-09T02:25:48.881Z,30.60
2022-12-09T02:28:22.257Z,32.77
2022-12-09T02:30:55.048Z,30.63
2022-12-09T02:33:22.879Z,32.87
2022-12-09T02:35:56.782Z,31.30
2022-12-09T02:38:28.870Z,37.37
2022-12-09T02:41:02.220Z,35.37
2022-12-09T02:43:31.717Z,31.70
2022-12-09T02:46:00.375Z,32.80
2022-12-09T02:48:32.435Z,34.97
2022-12-09T02:51:02.302Z,34.70
2022-12-09T02:53:29.632Z,32.77
2022-12-09T02:56:17.502Z,30.17
2022-12-09T02:58:44.702Z,31.67
2022-12-09T03:01:36.787Z,30.87
2022-12-09T03:04:03.990Z,30.50
2022-12-09T03:06:39.184Z,33.23
2022-12-09T03:09:11.086Z,33.07
2022-12-09T03:11:37.942Z,29.40
2022-12-09T03:14:14.562Z,31.13
2022-12-09T03:16:41.187Z,30.30
2022-12-09T03:19:10.737Z,29.23
2022-12-09T03:21:40.875Z,27.97
2022-12-09T03:24:08.472Z,35.27
2022-12-09T03:26:37.251Z,33.20
2022-12-09T03:29:06.081Z,28.90
2022-12-09T03:31:35.111Z,34.17
2022-12-09T03:34:04.126Z,31.37
2022-12-09T03:36:33.904Z,33.43
2022-12-09T03:39:00.850Z,28.80
2022-12-09T03:41:32.750Z,30.33
2022-12-09T03:44:01.731Z,28.13
2022-12-09T03:46:29.280Z,30.63
2022-12-09T03:48:56.871Z,26.90
2022-12-09T03:51:26.764Z,26.83
2022-12-09T03:53:57.809Z,33.80
2022-12-09T03:56:28.895Z,31.03
2022-12-09T03:59:30.075Z,32.87
2022-12-09T04:01:57.303Z,30.40
2022-12-09T04:04:24.355Z,28.43
2022-12-09T04:06:52.512Z,26.67
2022-12-09T04:09:19.129Z,30.03
2022-12-09T04:11:45.855Z,33.47
2022-12-09T04:14:15.822Z,27.60
2022-12-09T04:16:43.552Z,30.03
2022-12-09T04:19:10.346Z,34.00
2022-12-09T04:21:37.020Z,27.93
2022-12-09T04:24:03.857Z,30.23
2022-12-09T04:26:30.599Z,29.53
2022-12-09T04:28:58.672Z,28.63
2022-12-09T04:31:25.301Z,29.77
2022-12-09T04:33:54.212Z,32.07
2022-12-09T04:36:21.315Z,28.20
2022-12-09T04:38:47.906Z,27.07
2022-12-09T04:41:15.202Z,29.10
2022-12-09T04:43:41.859Z,27.47
2022-12-09T04:46:18.128Z,24.33
2022-12-09T04:48:45.127Z,23.23
2022-12-09T04:51:13.077Z,24.97
2022-12-09T04:53:40.794Z,25.53
2022-12-09T04:56:08.564Z,24.97
2022-12-09T04:58:35.527Z,21.67
2022-12-09T05:01:06.889Z,21.63
2022-12-09T05:03:33.922Z,25.47
2022-12-09T05:06:02.754Z,21.57
2022-12-09T05:08:31.708Z,20.40
2022-12-09T05:10:59.487Z,22.37
2022-12-09T05:13:28.020Z,23.87
2022-12-09T05:16:01.599Z,22.97
2022-12-09T05:18:29.925Z,21.07
2022-12-09T05:20:57.285Z,25.07
2022-12-09T05:23:24.362Z,25.00
2022-12-09T05:25:51.260Z,26.80
2022-12-09T05:28:19.552Z,24.83
2022-12-09T05:30:46.566Z,22.63
2022-12-09T05:33:13.300Z,22.43
2022-12-09T05:35:52.348Z,24.60
2022-12-09T05:38:19.655Z,26.10
2022-12-09T05:40:46.601Z,24.63
2022-12-09T05:43:13.342Z,24.53
2022-12-09T05:45:40.354Z,24.77
2022-12-09T05:48:07.573Z,22.87
2022-12-09T05:50:34.740Z,23.23
2022-12-09T05:53:01.749Z,24.33
2022-12-09T05:55:29.033Z,21.50
2022-12-09T05:57:56.196Z,20.77
2022-12-09T06:00:23.254Z,21.10
2022-12-09T06:02:50.311Z,21.60
2022-12-09T06:05:17.241Z,21.43
2022-12-09T06:07:44.310Z,18.67
2022-12-09T06:10:11.889Z,20.63
2022-12-09T06:12:39.138Z,18.43
2022-12-09T06:15:09.823Z,17.00
2022-12-09T06:17:37.489Z,17.03
2022-12-09T06:20:05.234Z,17.13
2022-12-09T06:22:32.646Z,18.50
2022-12-09T06:24:59.425Z,17.73
2022-12-09T06:27:26.434Z,16.17
2022-12-09T06:30:00.671Z,17.43
2022-12-09T06:32:27.934Z,15.87
2022-12-09T06:34:54.647Z,16.70
2022-12-09T06:37:21.839Z,22.37
2022-12-09T06:39:48.634Z,23.23
2022-12-09T06:42:15.644Z,23.67
2022-12-09T06:44:42.606Z,20.90
2022-12-09T06:47:09.301Z,19.97
2022-12-09T06:49:36.110Z,22.23
2022-12-09T06:52:03.190Z,22.80
2022-12-09T06:54:30.364Z,25.80
2022-12-09T06:56:57.193Z,26.33
2022-12-09T06:59:25.440Z,28.57
2022-12-09T07:01:52.575Z,29.97
2022-12-09T07:04:19.687Z,28.73
2022-12-09T07:06:46.981Z,32.70
2022-12-09T07:09:18.767Z,34.33
2022-12-09T07:11:47.407Z,31.23
2022-12-09T07:14:15.571Z,30.77
2022-12-09T07:16:43.077Z,35.33
2022-12-09T07:19:16.932Z,35.47
2022-12-09T07:21:43.721Z,31.53
2022-12-09T07:24:11.929Z,38.37
2022-12-09T07:26:38.845Z,36.43
2022-12-09T07:29:05.869Z,31.70
2022-12-09T07:31:32.846Z,35.57
2022-12-09T07:34:00.168Z,38.77
2022-12-09T07:36:28.159Z,34.43
2022-12-09T07:38:59.426Z,36.90
2022-12-09T07:41:26.605Z,31.63
2022-12-09T07:43:53.699Z,41.87
2022-12-09T07:46:21.712Z,34.83
2022-12-09T07:48:49.288Z,35.27
2022-12-09T07:51:17.009Z,39.37
2022-12-09T07:53:43.977Z,42.40
2022-12-09T07:56:14.937Z,36.57
2022-12-09T07:58:42.375Z,38.83
2022-12-09T08:01:10.781Z,30.87
2022-12-09T08:03:38.208Z,32.30
2022-12-09T08:06:05.699Z,29.50
2022-12-09T08:08:33.224Z,33.70
2022-12-09T08:11:06.653Z,30.03
2022-12-09T08:13:33.510Z,27.60
2022-12-09T08:16:07.046Z,29.93
2022-12-09T08:18:34.910Z,24.30
2022-12-09T08:21:12.606Z,31.13
2022-12-09T08:23:40.267Z,23.50
2022-12-09T08:26:11.248Z,24.13
2022-12-09T08:28:38.604Z,25.13
2022-12-09T08:31:09.098Z,22.73
2022-12-09T08:33:36.506Z,24.63
2022-12-09T08:36:04.590Z,25.53
2022-12-09T08:38:32.022Z,29.23
2022-12-09T08:40:59.086Z,31.37
2022-12-09T08:43:26.399Z,24.73
2022-12-09T08:45:53.341Z,24.57
2022-12-09T08:48:20.596Z,21.97
2022-12-09T08:50:47.425Z,28.10
2022-12-09T08:53:14.604Z,21.53
2022-12-09T08:55:42.514Z,23.97
2022-12-09T08:58:09.847Z,20.30
2022-12-09T09:00:36.531Z,24.57
2022-12-09T09:03:03.872Z,24.10
2022-12-09T09:05:31.104Z,27.57
2022-12-09T09:07:58.513Z,22.80
2022-12-09T09:10:25.850Z,24.50
2022-12-09T09:12:52.759Z,22.90
2022-12-09T09:15:19.563Z,22.33
2022-12-09T09:17:51.370Z,22.40
2022-12-09T09:20:19.187Z,24.57
2022-12-09T09:22:46.337Z,21.23
2022-12-09T09:25:13.409Z,19.33
2022-12-09T09:27:40.973Z,18.47
2022-12-09T09:30:10.470Z,20.67
2022-12-09T09:32:37.872Z,21.40
2022-12-09T09:35:05.371Z,20.87
2022-12-09T09:37:32.327Z,23.07
2022-12-09T09:39:59.090Z,25.87
2022-12-09T09:42:34.429Z,23.80
2022-12-09T09:45:03.166Z,22.47
2022-12-09T09:47:38.072Z,22.33
2022-12-09T09:50:25.038Z,21.57
2022-12-09T09:52:53.195Z,20.97
2022-12-09T09:55:24.547Z,24.30
2022-12-09T09:57:57.546Z,24.30
2022-12-09T10:00:27.714Z,20.53
2022-12-09T10:02:59.717Z,21.43
2022-12-09T10:05:34.836Z,21.17
2022-12-09T10:08:21.693Z,22.07
2022-12-09T10:11:07.479Z,24.03
2022-12-09T10:13:35.382Z,24.43
2022-12-09T10:16:02.723Z,20.47
2022-12-09T10:18:38.841Z,18.60
2022-12-09T10:21:19.414Z,31.53
2022-12-09T10:23:46.896Z,21.20
2022-12-09T10:26:25.718Z,26.63
2022-12-09T10:28:56.320Z,29.60
2022-12-09T10:31:23.593Z,29.53
2022-12-09T10:33:50.568Z,18.90
2022-12-09T10:36:23.374Z,17.97
2022-12-09T10:38:50.240Z,16.43
2022-12-09T10:41:45.525Z,22.07
2022-12-09T10:44:20.296Z,20.67
2022-12-09T10:46:47.889Z,20.70
2022-12-09T10:49:19.223Z,20.83
2022-12-09T10:51:51.029Z,20.17
2022-12-09T10:54:29.039Z,24.83
2022-12-09T10:57:01.615Z,18.77
2022-12-09T10:59:32.791Z,19.73
2022-12-09T11:02:02.029Z,20.07
2022-12-09T11:04:31.822Z,18.67
2022-12-09T11:07:02.038Z,21.87
2022-12-09T11:09:32.111Z,22.93
2022-12-09T11:12:00.125Z,19.47
2022-12-09T11:14:33.613Z,19.13
2022-12-09T11:17:20.926Z,22.90
2022-12-09T11:19:52.643Z,22.90
2022-12-09T11:22:33.664Z,20.73
2022-12-09T11:25:13.212Z,19.83
2022-12-09T11:27:41.361Z,21.20
2022-12-09T11:30:13.957Z,25.50
2022-12-09T11:32:50.298Z,23.57
2022-12-09T11:35:18.927Z,22.47
2022-12-09T11:37:45.743Z,22.03
2022-12-09T11:40:16.107Z,19.00
2022-12-09T11:42:42.712Z,17.90
2022-12-09T11:45:28.072Z,17.43
2022-12-09T11:50:49.541Z,23.53
2022-12-09T11:53:40.739Z,23.83
2022-12-09T11:56:12.231Z,23.27
2022-12-09T11:58:38.819Z,27.07
2022-12-09T12:01:09.738Z,23.37
2022-12-09T12:03:38.099Z,30.87
2022-12-09T12:06:08.083Z,32.53
2022-12-09T12:08:45.507Z,26.83
2022-12-09T12:11:15.727Z,33.60
2022-12-09T12:13:46.345Z,40.07
2022-12-09T12:16:27.393Z,29.07
2022-12-09T12:19:01.167Z,28.03
2022-12-09T12:22:06.183Z,30.70
2022-12-09T12:24:36.252Z,45.90
2022-12-09T12:27:15.450Z,34.50
2022-12-09T12:29:42.113Z,26.87
2022-12-09T12:32:27.704Z,27.93
2022-12-09T12:35:02.948Z,34.23
2022-12-09T12:37:35.689Z,28.50
2022-12-09T12:40:15.035Z,29.53
2022-12-09T12:43:39.666Z,34.83
2022-12-09T12:46:25.686Z,30.00
2022-12-09T12:49:11.140Z,32.40
2022-12-09T12:51:56.411Z,32.80
2022-12-09T12:54:26.037Z,32.07
2022-12-09T12:56:52.676Z,37.17
2022-12-09T12:59:22.300Z,34.57
2022-12-09T13:01:53.546Z,37.03
2022-12-09T13:04:23.275Z,30.70
2022-12-09T13:07:08.438Z,38.60
2022-12-09T13:09:39.817Z,30.07
2022-12-09T13:12:06.508Z,31.97
2022-12-09T13:14:39.833Z,27.97
2022-12-09T13:17:08.252Z,32.67
2022-12-09T13:19:38.352Z,27.60
2022-12-09T13:22:05.971Z,27.07
2022-12-09T13:24:32.605Z,19.57
2022-12-09T13:27:01.550Z,16.87
2022-12-09T13:29:37.379Z,18.13
2022-12-09T13:32:03.979Z,21.73
2022-12-09T13:34:37.762Z,18.87
2022-12-09T13:37:04.712Z,22.20
2022-12-09T13:39:40.284Z,20.10
2022-12-09T13:42:46.919Z,17.00
2022-12-09T13:45:14.281Z,17.53
2022-12-09T13:47:40.894Z,13.50
2022-12-09T13:50:27.482Z,14.27
2022-12-09T13:52:56.613Z,19.83
2022-12-09T13:55:34.810Z,19.00
2022-12-09T13:58:20.094Z,23.43
2022-12-09T14:01:04.299Z,19.13
2022-12-09T14:03:37.154Z,29.47
2022-12-09T14:06:19.917Z,26.63
2022-12-09T14:08:49.055Z,20.07
2022-12-09T14:11:34.424Z,21.07
2022-12-09T14:14:27.191Z,20.53
2022-12-09T14:17:00.429Z,20.40
2022-12-09T14:19:27.203Z,17.00
2022-12-09T14:22:16.276Z,20.13
2022-12-09T14:24:43.227Z,19.40
2022-12-09T14:27:12.330Z,24.93
2022-12-09T14:29:48.293Z,22.87
2022-12-09T14:32:53.542Z,27.67
2022-12-09T14:35:22.751Z,31.03
2022-12-09T14:38:09.072Z,28.87
2022-12-09T14:40:35.674Z,35.53
2022-12-09T14:43:05.388Z,34.30
2022-12-09T14:45:32.183Z,34.63
2022-12-09T14:47:58.944Z,27.90
2022-12-09T14:50:27.755Z,30.73
2022-12-09T14:52:58.906Z,29.80
2022-12-09T14:55:26.160Z,27.90
2022-12-09T14:57:54.760Z,26.20
2022-12-09T15:00:24.721Z,23.20
2022-12-09T15:03:23.054Z,24.50
2022-12-09T15:05:39.116Z,28.07
2022-12-09T15:08:05.864Z,26.20
2022-12-09T15:10:34.492Z,21.20
2022-12-09T15:13:01.573Z,23.13
2022-12-09T15:15:31.028Z,23.27
2022-12-09T15:18:01.893Z,21.37
2022-12-09T15:20:28.520Z,22.73
2022-12-09T15:23:00.506Z,22.67
2022-12-09T15:25:27.529Z,22.60
2022-12-09T15:27:54.881Z,21.97
2022-12-09T15:30:23.224Z,16.73
2022-12-09T15:32:49.861Z,17.93
2022-12-09T15:35:24.645Z,24.03
2022-12-09T15:37:52.626Z,16.53
2022-12-09T15:40:20.656Z,17.63
2022-12-09T15:42:48.496Z,19.97
2022-12-09T15:45:16.826Z,20.90
2022-12-09T15:47:49.523Z,23.10
2022-12-09T15:50:21.594Z,17.47
2022-12-09T15:52:51.516Z,24.63
2022-12-09T15:55:20.527Z,30.70
2022-12-09T15:57:49.395Z,23.87
2022-12-09T16:00:16.222Z,26.27
2022-12-09T16:02:44.423Z,23.27
2022-12-09T16:05:11.394Z,22.33
2022-12-09T16:07:38.493Z,20.17
2022-12-09T16:10:09.394Z,21.83
2022-12-09T16:12:36.559Z,18.67
2022-12-09T16:15:07.273Z,24.63
2022-12-09T16:17:37.736Z,23.00
2022-12-09T16:20:33.571Z,24.50
2022-12-09T16:23:01.432Z,18.73
2022-12-09T16:25:29.474Z,24.60
2022-12-09T16:27:58.881Z,23.20
2022-12-09T16:30:26.621Z,29.77
2022-12-09T16:32:54.273Z,29.43
2022-12-09T16:35:39.571Z,28.33
2022-12-09T16:38:13.389Z,23.80
2022-12-09T16:40:46.132Z,24.93
2022-12-09T16:43:15.558Z,23.20
2022-12-09T16:45:43.405Z,45.17
2022-12-09T16:48:10.735Z,27.13
2022-12-09T16:50:47.845Z,23.70
2022-12-09T16:53:19.036Z,27.13
2022-12-09T16:55:50.067Z,21.83
2022-12-09T16:58:16.812Z,29.60
2022-12-09T17:00:43.573Z,24.13
2022-12-09T17:03:18.351Z,23.23
2022-12-09T17:05:47.926Z,19.97
2022-12-09T17:08:14.980Z,28.33
2022-12-09T17:10:42.077Z,25.90
2022-12-09T17:13:08.819Z,26.90
2022-12-09T17:15:35.611Z,26.43
2022-12-09T17:18:02.212Z,29.47
2022-12-09T17:20:28.831Z,26.93
2022-12-09T17:22:55.636Z,27.60
2022-12-09T17:25:22.259Z,23.07
2022-12-09T17:27:48.869Z,24.30
2022-12-09T17:30:15.507Z,27.57
2022-12-09T17:32:42.616Z,25.57
2022-12-09T17:35:12.871Z,25.77
2022-12-09T17:37:39.635Z,22.90
2022-12-09T17:40:06.856Z,24.23
2022-12-09T17:42:33.878Z,27.43
2022-12-09T17:45:00.669Z,23.33
2022-12-09T17:47:28.635Z,34.47
2022-12-09T17:49:55.285Z,17.20
2022-12-09T17:52:21.891Z,21.03
2022-12-09T17:54:48.467Z,26.67
2022-12-09T17:57:15.120Z,30.17
2022-12-09T17:59:41.714Z,27.03
2022-12-09T18:02:11.536Z,30.63
2022-12-09T18:04:38.165Z,29.53
2022-12-09T18:07:04.784Z,27.23
2022-12-09T18:09:31.356Z,26.77
2022-12-09T18:11:57.995Z,30.40
2022-12-09T18:14:25.493Z,30.70
2022-12-09T18:16:52.201Z,26.97
2022-12-09T18:19:20.377Z,28.93
2022-12-09T18:21:47.059Z,28.37
2022-12-09T18:24:14.127Z,26.43
2022-12-09T18:26:42.137Z,30.73
2022-12-09T18:29:09.738Z,25.77
2022-12-09T18:31:36.551Z,28.97
2022-12-09T18:34:03.154Z,30.20
2022-12-09T18:36:29.857Z,27.87
2022-12-09T18:38:58.214Z,29.23
2022-12-09T18:41:26.110Z,31.87
2022-12-09T18:44:04.709Z,31.13
2022-12-09T18:46:33.192Z,27.77
2022-12-09T18:49:01.776Z,31.23
2022-12-09T18:51:28.899Z,29.20
2022-12-09T18:53:56.896Z,34.20
2022-12-09T18:56:23.581Z,32.33
2022-12-09T18:59:06.082Z,32.87
2022-12-09T19:01:35.771Z,35.60
2022-12-09T19:04:03.574Z,32.87
2022-12-09T19:06:35.252Z,37.00
2022-12-09T19:09:04.131Z,31.97
2022-12-09T19:11:32.407Z,38.57
2022-12-09T19:13:59.450Z,36.77
2022-12-09T19:16:26.908Z,38.97
2022-12-09T19:18:54.030Z,37.33
2022-12-09T19:21:21.697Z,35.17
2022-12-09T19:23:48.444Z,37.97
2022-12-09T19:26:26.048Z,37.17
2022-12-09T19:28:57.259Z,39.27
2022-12-09T19:31:25.347Z,38.43
2022-12-09T19:33:56.074Z,34.67
2022-12-09T19:36:23.709Z,37.20
2022-12-09T19:38:51.090Z,41.00
2022-12-09T19:41:18.143Z,38.97
2022-12-09T19:43:45.546Z,41.83
2022-12-09T19:46:13.211Z,38.00
2022-12-09T19:48:41.168Z,41.23
2022-12-09T19:51:09.496Z,44.27
2022-12-09T19:53:37.263Z,38.70
2022-12-09T19:56:05.910Z,45.57
2022-12-09T19:58:50.778Z,43.50
2022-12-09T20:01:19.185Z,44.33
2022-12-09T20:03:47.069Z,40.87
2022-12-09T20:06:16.245Z,40.53
2022-12-09T20:08:43.525Z,44.13
2022-12-09T20:11:12.678Z,39.77
2022-12-09T20:13:39.540Z,40.77
2022-12-09T20:16:11.007Z,41.93
2022-12-09T20:18:38.101Z,46.27
2022-12-09T20:21:06.291Z,41.80
2022-12-09T20:23:34.406Z,41.67
2022-12-09T20:26:09.945Z,44.07
2022-12-09T20:28:37.460Z,44.57
2022-12-09T20:31:05.358Z,38.00
2022-12-09T20:33:33.066Z,45.87
2022-12-09T20:36:13.449Z,46.93
2022-12-09T20:38:40.118Z,45.60
2022-12-09T20:41:09.840Z,46.60
2022-12-09T20:43:39.687Z,44.67
2022-12-09T20:46:06.709Z,46.80
2022-12-09T20:48:33.539Z,49.00
2022-12-09T20:51:02.662Z,48.57
2022-12-09T20:53:29.413Z,46.60
2022-12-09T20:55:57.227Z,48.23
2022-12-09T20:58:24.324Z,41.80
2022-12-09T21:00:51.058Z,49.50
2022-12-09T21:03:18.363Z,47.13
2022-12-09T21:05:45.094Z,48.67
2022-12-09T21:08:12.169Z,51.03
2022-12-09T21:10:38.867Z,52.27
2022-12-09T21:13:05.775Z,55.20
2022-12-09T21:15:32.450Z,53.43
2022-12-09T21:17:59.090Z,50.47
2022-12-09T21:20:25.814Z,58.57
2022-12-09T21:23:17.343Z,42.80
2022-12-09T21:25:39.230Z,38.47
2022-12-09T21:28:06.300Z,44.60
2022-12-09T21:30:32.957Z,47.97
2022-12-09T21:32:59.700Z,45.47
2022-12-09T21:35:26.354Z,44.83
2022-12-09T21:37:56.236Z,43.77
2022-12-09T21:40:23.100Z,39.93
2022-12-09T21:42:55.509Z,44.63
2022-12-09T21:45:22.156Z,46.87
2022-12-09T21:47:48.781Z,48.00
2022-12-09T21:50:15.458Z,47.97
2022-12-09T21:52:43.999Z,47.13
2022-12-09T21:55:10.658Z,49.87
2022-12-09T21:57:38.353Z,48.03
2022-12-09T22:00:05.605Z,50.50
2022-12-09T22:02:32.518Z,54.33
2022-12-09T22:04:59.176Z,49.43
2022-12-09T22:07:25.766Z,51.50
2022-12-09T22:09:52.411Z,56.23
2022-12-09T22:12:19.043Z,55.53
2022-12-09T22:14:45.768Z,51.07
2022-12-09T22:17:12.411Z,61.00
2022-12-09T22:19:39.080Z,52.57
2022-12-09T22:22:09.053Z,57.90
2022-12-09T22:24:36.010Z,57.60
2022-12-09T22:27:02.615Z,52.57
2022-12-09T22:29:29.263Z,49.23
2022-12-09T22:31:55.911Z,53.83
2022-12-09T22:34:22.667Z,55.33
2022-12-09T22:36:49.718Z,61.83
2022-12-09T22:39:18.004Z,61.50
2022-12-09T22:41:46.040Z,64.00
2022-12-09T22:44:13.703Z,60.43
2022-12-09T22:46:40.521Z,61.07
2022-12-09T22:49:07.342Z,66.83
2022-12-09T22:51:35.902Z,58.50
2022-12-09T22:54:04.321Z,69.67
2022-12-09T22:56:31.050Z,62.37
2022-12-09T22:58:58.976Z,65.43
2022-12-09T23:01:29.900Z,63.47
2022-12-09T23:03:57.646Z,61.10
2022-12-09T23:06:24.950Z,56.90
2022-12-09T23:08:51.724Z,65.10
2022-12-09T23:11:19.656Z,59.10
2022-12-09T23:13:46.587Z,66.53
2022-12-09T23:16:17.704Z,65.80
2022-12-09T23:18:44.427Z,60.77
2022-12-09T23:21:12.983Z,65.77
2022-12-09T23:24:01.330Z,66.93
2022-12-09T23:26:29.159Z,63.87
2022-12-09T23:28:57.853Z,66.90
2022-12-09T23:31:27.631Z,61.17
2022-12-09T23:33:54.850Z,63.97
2022-12-09T23:36:23.172Z,64.00
2022-12-09T23:38:50.022Z,67.87
2022-12-09T23:41:17.643Z,67.07
2022-12-09T23:43:44.945Z,76.70
2022-12-09T23:46:16.048Z,83.17
2022-12-09T23:48:43.488Z,97.57
2022-12-09T23:51:14.972Z,98.67
2022-12-09T23:53:42.591Z,117.00
2022-12-09T23:56:16.250Z,107.67
2022-12-09T23:58:43.041Z,104.53
